Time;durP1;ratioP1;P1;durP2;ratioP2;P2;SDS_P1;SDS_P2;PMS_P1;PMS_P2;Temp;Humidity;BMP_temperature;BMP_pressure;BME280_temperature;BME280_humidity;BME280_pressure;Samples;Min_cycle;Max_cycle;Signal;HPM_P1;HPM_P2
2021/11/05 00:00:11;;;;;;;1.30;1.20;;;3.80;1.40;;;4.44;100.00;95265.50;646375;212;31523;-73
2021/11/05 00:02:54;;;;;;;0.73;0.60;;;3.60;1.40;;;4.32;100.00;95274.52;646309;216;31571;-69
2021/11/05 00:05:34;;;;;;;0.80;0.80;;;3.70;1.40;;;4.24;100.00;95273.53;645296;216;31573;-70
2021/11/05 00:08:16;;;;;;;1.90;0.80;;;3.60;1.40;;;4.28;100.00;95271.90;646954;216;31801;-76
2021/11/05 00:10:57;;;;;;;0.77;0.75;;;3.60;1.40;;;4.22;100.00;95275.58;646337;216;31786;-70
2021/11/05 00:13:42;;;;;;;0.70;0.70;;;3.60;1.40;;;4.22;100.00;95272.95;645552;216;31500;-71
2021/11/05 00:16:24;;;;;;;0.55;0.55;;;3.70;1.40;;;4.26;100.00;95270.20;646724;213;31781;-72
2021/11/05 00:19:05;;;;;;;0.98;0.98;;;3.70;1.40;;;4.31;100.00;95268.95;618986;222;32389;-71
2021/11/05 00:21:47;;;;;;;1.05;0.90;;;3.70;1.40;;;4.26;100.00;95272.94;648053;216;31596;-71
2021/11/05 00:24:29;;;;;;;0.90;0.80;;;3.70;1.40;;;4.24;100.00;95275.84;645803;216;32281;-72
2021/11/05 00:27:10;;;;;;;0.82;0.82;;;3.60;1.40;;;4.18;100.00;95277.51;645676;216;32884;-71
2021/11/05 00:29:52;;;;;;;1.20;0.50;;;3.40;1.40;;;4.10;100.00;95274.29;618502;222;43079;-70
2021/11/05 00:32:34;;;;;;;0.70;0.70;;;3.20;1.40;;;3.93;100.00;95275.59;647986;212;31527;-72
2021/11/05 00:35:51;;;;;;;0.60;0.57;;;3.20;1.40;;;3.85;100.00;95279.26;646116;212;31686;-72
2021/11/05 00:38:32;;;;;;;0.70;0.70;;;3.00;1.40;;;3.71;100.00;95278.83;647266;216;31577;-72
2021/11/05 00:41:14;;;;;;;0.65;0.60;;;2.90;1.40;;;3.66;100.00;95277.22;646144;212;31624;-72
2021/11/05 00:43:56;;;;;;;0.70;0.70;;;3.00;1.40;;;3.66;100.00;95281.66;644815;212;31653;-72
2021/11/05 00:46:37;;;;;;;1.30;1.20;;;3.10;1.40;;;3.74;100.00;95283.27;647065;216;32017;-72
2021/11/05 00:49:22;;;;;;;0.70;0.62;;;3.20;1.40;;;3.76;100.00;95285.41;646892;216;31597;-72
2021/11/05 00:52:04;;;;;;;0.90;0.60;;;3.20;1.40;;;3.75;100.00;95286.91;618612;222;32100;-72
2021/11/05 00:54:49;;;;;;;1.00;1.00;;;3.20;1.40;;;3.80;100.00;95290.24;646103;216;31842;-70
2021/11/05 00:57:31;;;;;;;0.93;0.82;;;3.30;1.40;;;3.81;100.00;95289.60;646768;212;31629;-72
2021/11/05 01:00:13;;;;;;;1.50;0.80;;;3.30;1.40;;;3.76;100.00;95287.34;645533;212;31535;-72
2021/11/05 01:02:54;;;;;;;0.90;0.70;;;3.20;1.40;;;3.77;100.00;95295.49;618668;225;32038;-69
2021/11/05 01:05:39;;;;;;;0.70;0.60;;;3.10;1.40;;;3.72;100.00;95285.97;646271;216;31496;-70
2021/11/05 01:08:21;;;;;;;0.90;0.90;;;3.00;1.40;;;3.57;100.00;95288.23;618463;226;32885;-71
2021/11/05 01:11:03;;;;;;;0.90;0.90;;;3.00;1.40;;;3.59;100.00;95288.35;647066;212;32106;-72
2021/11/05 01:13:44;;;;;;;1.70;0.80;;;3.00;1.40;;;3.63;100.00;95288.89;645622;212;31483;-72
2021/11/05 01:16:26;;;;;;;0.65;0.65;;;3.20;1.40;;;3.69;100.00;95295.08;645924;216;31577;-70
2021/11/05 01:19:08;;;;;;;0.77;0.77;;;3.00;1.40;;;3.45;100.00;95294.83;648148;216;31516;-71
2021/11/05 01:21:49;;;;;;;1.00;0.80;;;2.70;1.40;;;3.36;100.00;95292.81;647125;216;31507;-72
2021/11/05 01:24:31;;;;;;;0.80;0.80;;;2.50;1.40;;;3.27;100.00;95296.08;646847;212;31624;-71
2021/11/05 01:27:13;;;;;;;1.25;1.15;;;2.50;1.40;;;3.23;100.00;95299.06;646605;216;31528;-71
2021/11/05 01:30:02;;;;;;;0.70;0.60;;;2.60;1.40;;;3.32;100.00;95304.88;619178;225;31809;-71
2021/11/05 01:32:44;;;;;;;0.60;0.60;;;2.60;1.40;;;3.34;100.00;95303.02;646437;212;31508;-69
2021/11/05 01:35:52;;;;;;;0.77;0.77;;;2.90;1.40;;;3.50;100.00;95307.97;646414;216;42167;-71
2021/11/05 01:38:33;;;;;;;1.10;0.90;;;3.00;1.40;;;3.55;100.00;95311.28;647203;213;31648;-71
2021/11/05 01:41:18;;;;;;;0.80;0.80;;;3.00;1.40;;;3.55;100.00;95311.23;644351;216;31807;-71
2021/11/05 01:43:59;;;;;;;0.77;0.77;;;3.10;1.40;;;3.53;100.00;95307.39;647050;216;31529;-72
2021/11/05 01:46:42;;;;;;;0.80;0.80;;;3.00;1.40;;;3.52;100.00;95307.28;644914;216;31540;-72
2021/11/05 01:49:23;;;;;;;1.30;0.60;;;3.00;1.40;;;3.50;100.00;95310.22;646397;216;31553;-71
2021/11/05 01:52:08;;;;;;;0.62;0.62;;;3.00;1.40;;;3.48;100.00;95305.92;647962;216;31539;-71
2021/11/05 01:54:50;;;;;;;1.10;0.90;;;3.00;1.40;;;3.44;100.00;95304.89;645299;216;31507;-72
2021/11/05 01:59:27;;;;;;;1.10;0.82;;;2.80;1.40;;;3.33;100.00;95311.91;647905;212;31505;-71
2021/11/05 02:02:12;;;;;;;0.70;0.70;;;2.60;1.40;;;3.21;100.00;95310.78;646085;212;31544;-71
2021/11/05 02:04:53;;;;;;;1.00;0.60;;;2.20;1.40;;;3.01;100.00;95311.20;645058;212;31534;-72
2021/11/05 02:07:35;;;;;;;0.88;0.82;;;1.90;1.40;;;2.93;100.00;95317.72;648269;216;31520;-71
2021/11/05 02:10:21;;;;;;;0.60;0.60;;;1.70;1.40;;;2.65;100.00;95314.64;619659;226;31876;-70
2021/11/05 02:13:03;;;;;;;0.75;0.75;;;1.60;1.40;;;2.37;100.00;95325.30;647197;216;32076;-72
2021/11/05 02:15:45;;;;;;;1.05;0.60;;;1.40;1.40;;;2.15;100.00;95321.09;646311;216;31498;-70
2021/11/05 02:18:26;;;;;;;1.00;1.00;;;1.20;1.40;;;2.18;100.00;95323.84;645265;212;31519;-71
2021/11/05 02:21:08;;;;;;;1.20;0.97;;;1.10;1.40;;;2.23;100.00;95324.61;641940;217;34393;-72
2021/11/05 02:23:50;;;;;;;0.60;0.50;;;1.20;1.40;;;2.17;100.00;95323.95;620123;226;32099;-72
2021/11/05 02:26:31;;;;;;;1.05;0.95;;;1.20;1.40;;;2.04;100.00;95325.08;645500;212;31524;-72
2021/11/05 02:29:13;;;;;;;0.50;0.50;;;1.10;1.40;;;2.00;100.00;95320.13;647485;216;31564;-71
2021/11/05 02:31:55;;;;;;;1.30;0.80;;;0.90;1.40;;;1.80;100.00;95323.13;646072;216;31550;-72
2021/11/05 02:35:52;;;;;;;0.70;0.70;;;0.70;1.40;;;1.66;100.00;95324.73;643841;212;31593;-72
2021/11/05 02:38:33;;;;;;;0.90;0.50;;;0.70;1.40;;;1.73;100.00;95330.27;619025;222;31880;-71
2021/11/05 02:41:20;;;;;;;0.55;0.45;;;0.80;1.40;;;1.82;100.00;95331.64;643164;212;31640;-71
2021/11/05 02:43:59;;;;;;;0.57;0.45;;;0.90;1.40;;;1.79;100.00;95333.59;646128;216;31596;-72
2021/11/05 02:48:40;;;;;;;1.30;1.20;;;0.90;1.40;;;1.83;100.00;95336.84;645814;212;42550;-72
2021/11/05 02:51:21;;;;;;;0.40;0.37;;;0.90;1.40;;;1.86;100.00;95334.24;617272;222;32675;-71
2021/11/05 02:54:03;;;;;;;0.60;0.60;;;0.90;1.40;;;1.89;100.00;95334.84;648129;216;31594;-71
2021/11/05 02:56:45;;;;;;;0.70;0.70;;;0.90;1.40;;;2.01;100.00;95335.11;646105;212;32297;-72
2021/11/05 02:59:29;;;;;;;0.98;0.40;;;1.20;1.40;;;2.18;100.00;95335.13;646256;216;32938;-72
2021/11/05 03:02:11;;;;;;;0.90;0.60;;;1.50;1.40;;;2.50;100.00;95338.80;618186;226;32447;-71
2021/11/05 03:04:54;;;;;;;0.60;0.60;;;2.00;1.40;;;2.79;100.00;95338.04;646994;212;32114;-71
2021/11/05 03:07:34;;;;;;;0.70;0.70;;;2.30;1.40;;;2.96;100.00;95339.20;629977;222;32318;-72
2021/11/05 03:10:16;;;;;;;0.65;0.65;;;2.50;1.40;;;3.14;100.00;95338.37;647139;216;32099;-72
2021/11/05 03:12:58;;;;;;;0.70;0.62;;;2.70;1.40;;;3.27;100.00;95339.95;646367;216;32095;-72
2021/11/05 03:15:42;;;;;;;0.68;0.50;;;2.70;1.40;;;3.34;100.00;95340.89;646337;212;31576;-69
2021/11/05 03:18:30;;;;;;;1.10;0.80;;;2.80;1.40;;;3.41;100.00;95349.47;646074;214;31662;-70
2021/11/05 03:21:06;;;;;;;0.90;0.55;;;2.90;1.40;;;3.49;100.00;95349.56;646302;216;31828;-71
2021/11/05 03:23:47;;;;;;;0.50;0.40;;;3.00;1.40;;;3.56;100.00;95352.18;642738;215;32070;-72
2021/11/05 03:26:29;;;;;;;0.68;0.68;;;3.00;1.40;;;3.56;100.00;95354.75;647025;213;32205;-71
2021/11/05 03:29:11;;;;;;;1.20;0.57;;;3.10;1.40;;;3.64;100.00;95357.57;646633;212;32055;-72
2021/11/05 03:31:55;;;;;;;0.65;0.65;;;3.10;1.40;;;3.71;100.00;95356.73;647769;216;32251;-72
2021/11/05 03:35:51;;;;;;;1.40;1.30;;;3.20;1.40;;;3.77;100.00;95362.56;619188;226;32323;-70
2021/11/05 03:38:32;;;;;;;0.90;0.90;;;3.10;1.40;;;3.77;100.00;95365.30;645804;216;31794;-72
2021/11/05 03:41:14;;;;;;;0.80;0.70;;;3.00;1.40;;;3.71;100.00;95368.16;617125;222;32614;-70
2021/11/05 03:43:56;;;;;;;0.50;0.40;;;2.80;1.40;;;3.70;100.00;95367.67;646545;216;42298;-72
2021/11/05 03:46:37;;;;;;;1.10;0.70;;;2.70;1.40;;;3.58;100.00;95373.31;647201;212;32104;-71
2021/11/05 03:51:53;;;;;;;1.35;0.75;;;2.60;1.40;;;3.54;100.00;95379.08;645422;216;31567;-72
2021/11/05 03:54:35;;;;;;;0.55;0.55;;;2.60;1.40;;;3.50;100.00;95377.54;648046;212;31823;-71
2021/11/05 03:57:17;;;;;;;0.75;0.75;;;2.70;1.40;;;3.60;100.00;95375.25;646141;216;31506;-71
2021/11/05 03:59:58;;;;;;;0.47;0.47;;;2.80;1.40;;;3.62;100.00;95384.84;646781;212;31567;-73
2021/11/05 04:02:43;;;;;;;1.00;0.73;;;2.90;1.40;;;3.47;100.00;95381.92;619695;222;32070;-70
2021/11/05 04:05:25;;;;;;;0.80;0.70;;;2.90;1.40;;;3.59;100.00;95391.16;645423;216;31528;-71
2021/11/05 04:08:10;;;;;;;2.00;1.70;;;3.00;1.40;;;3.77;100.00;95384.66;646018;216;31978;-70
2021/11/05 04:10:52;;;;;;;1.40;0.90;;;3.20;1.40;;;3.77;100.00;95396.45;645794;212;32039;-72
2021/11/05 04:13:33;;;;;;;1.48;1.20;;;3.20;1.40;;;3.78;100.00;95393.78;648236;216;32180;-71
2021/11/05 04:16:16;;;;;;;0.93;0.93;;;3.20;1.40;;;3.76;100.00;95396.08;645541;216;35576;-69
2021/11/05 04:18:57;;;;;;;1.30;0.70;;;3.20;1.40;;;3.72;100.00;95403.57;646256;212;31547;-72
2021/11/05 04:21:39;;;;;;;1.12;1.02;;;3.10;1.40;;;3.68;100.00;95406.05;618479;226;32017;-72
2021/11/05 04:24:20;;;;;;;0.70;0.60;;;3.00;1.40;;;3.69;100.00;95412.11;645636;216;31535;-72
2021/11/05 04:27:02;;;;;;;1.20;1.10;;;3.10;1.40;;;3.61;100.00;95414.65;647195;216;31700;-71
2021/11/05 04:29:44;;;;;;;1.30;0.90;;;2.90;1.40;;;3.55;100.00;95418.86;646206;212;31527;-70
2021/11/05 04:32:25;;;;;;;1.10;0.90;;;2.90;1.40;;;3.46;100.00;95420.77;647544;216;42167;-72
2021/11/05 04:35:52;;;;;;;1.15;1.10;;;2.80;1.40;;;3.42;100.00;95420.86;645942;216;31570;-71
2021/11/05 04:38:33;;;;;;;0.90;0.90;;;2.90;1.40;;;3.45;100.00;95424.56;645306;216;31588;-71
2021/11/05 04:41:15;;;;;;;0.90;0.60;;;2.80;1.40;;;3.50;100.00;95419.50;644233;216;31706;-71
2021/11/05 04:43:56;;;;;;;0.90;0.90;;;2.90;1.40;;;3.57;100.00;95423.48;646636;212;31543;-71
2021/11/05 04:46:38;;;;;;;0.70;0.60;;;2.90;1.40;;;3.37;100.00;95428.77;645907;212;32083;-71
2021/11/05 04:49:22;;;;;;;0.50;0.40;;;2.70;1.40;;;3.38;100.00;95426.25;647812;216;31497;-70
2021/11/05 04:52:01;;;;;;;0.80;0.60;;;2.80;1.40;;;3.35;100.00;95435.13;646612;212;31883;-70
2021/11/05 04:54:43;;;;;;;1.25;0.77;;;2.80;1.40;;;3.26;100.00;95436.00;645809;216;31617;-69
2021/11/05 04:57:25;;;;;;;0.90;0.90;;;2.70;1.40;;;3.16;100.00;95437.73;646639;212;42501;-71
2021/11/05 05:00:08;;;;;;;1.10;1.00;;;2.60;1.40;;;3.00;100.00;95442.72;646132;212;31710;-72
2021/11/05 05:02:50;;;;;;;1.10;0.60;;;2.40;1.40;;;3.04;100.00;95442.37;645209;216;31524;-72
2021/11/05 05:05:35;;;;;;;0.80;0.80;;;2.40;1.40;;;3.02;100.00;95444.94;623963;225;31830;-71
2021/11/05 05:08:16;;;;;;;0.70;0.70;;;2.40;1.40;;;2.97;100.00;95444.92;647414;216;31503;-71
2021/11/05 05:10:58;;;;;;;1.30;0.90;;;2.40;1.40;;;2.93;100.00;95451.20;644915;216;31535;-71
2021/11/05 05:13:40;;;;;;;0.77;0.55;;;2.40;1.40;;;2.95;100.00;95454.39;646602;216;31507;-71
2021/11/05 05:16:22;;;;;;;0.70;0.70;;;2.40;1.40;;;3.12;100.00;95457.80;646276;216;31472;-71
2021/11/05 05:19:03;;;;;;;0.80;0.80;;;2.60;1.40;;;3.27;100.00;95460.17;645308;216;31526;-72
2021/11/05 05:21:45;;;;;;;0.80;0.65;;;2.70;1.40;;;3.39;100.00;95459.95;617253;226;31882;-72
2021/11/05 05:24:27;;;;;;;0.65;0.60;;;2.80;1.40;;;3.37;100.00;95463.48;646147;212;31517;-72
2021/11/05 05:27:08;;;;;;;0.60;0.60;;;2.80;1.40;;;3.42;100.00;95468.23;645613;216;31560;-72
2021/11/05 05:29:50;;;;;;;1.30;1.20;;;2.80;1.40;;;3.42;100.00;95470.53;645746;216;31663;-71
2021/11/05 05:32:32;;;;;;;0.77;0.77;;;2.80;1.40;;;3.52;100.00;95467.21;645747;216;31612;-72
2021/11/05 05:35:51;;;;;;;0.98;0.80;;;3.00;1.40;;;3.69;100.00;95470.81;646744;212;42154;-71
2021/11/05 05:38:35;;;;;;;1.67;1.05;;;3.20;1.40;;;3.62;100.00;95474.42;646114;212;32094;-71
2021/11/05 05:41:19;;;;;;;1.50;0.90;;;3.10;1.40;;;3.64;100.00;95482.75;637088;215;33902;-72
2021/11/05 05:44:01;;;;;;;0.50;0.50;;;3.00;1.40;;;3.58;100.00;95485.82;630292;217;31750;-71
2021/11/05 05:46:43;;;;;;;0.50;0.50;;;3.00;1.40;;;3.51;100.00;95489.67;646612;216;31512;-70
2021/11/05 05:49:24;;;;;;;1.00;0.60;;;2.90;1.40;;;3.51;100.00;95495.88;645815;216;31552;-72
2021/11/05 05:52:06;;;;;;;1.50;0.88;;;2.90;1.40;;;3.44;100.00;95495.14;647091;212;31633;-71
2021/11/05 05:54:48;;;;;;;1.10;0.90;;;2.90;1.40;;;3.46;100.00;95503.89;646301;212;31558;-72
2021/11/05 05:57:30;;;;;;;0.80;0.80;;;2.90;1.40;;;3.46;100.00;95507.91;645114;216;31582;-72
2021/11/05 06:00:12;;;;;;;1.40;0.85;;;2.80;1.40;;;3.38;100.00;95515.30;645780;216;31510;-71
2021/11/05 06:02:56;;;;;;;1.30;1.10;;;2.70;1.40;;;3.43;100.00;95521.45;647111;212;31673;-71
2021/11/05 06:05:38;;;;;;;0.77;0.77;;;2.80;1.40;;;3.38;100.00;95520.30;646887;216;31618;-69
2021/11/05 06:08:19;;;;;;;1.30;1.20;;;2.80;1.40;;;3.47;100.00;95527.11;618319;226;31966;-72
2021/11/05 06:11:01;;;;;;;1.00;1.00;;;2.90;1.40;;;3.47;100.00;95530.64;646556;216;31970;-70
2021/11/05 06:13:43;;;;;;;0.73;0.73;;;2.90;1.40;;;3.44;100.00;95534.86;646553;216;38225;-70
2021/11/05 06:16:24;;;;;;;0.80;0.80;;;2.80;1.40;;;3.53;100.00;95538.56;646631;212;31619;-72
2021/11/05 06:19:06;;;;;;;1.00;0.90;;;2.80;1.40;;;3.60;100.00;95540.52;618760;226;31949;-72
2021/11/05 06:21:48;;;;;;;0.80;0.68;;;2.90;1.40;;;3.59;100.00;95544.20;642525;216;31553;-70
2021/11/05 06:24:29;;;;;;;1.25;1.00;;;2.80;1.40;;;3.56;100.00;95547.23;646843;212;31882;-71
2021/11/05 06:27:11;;;;;;;0.73;0.70;;;2.90;1.40;;;3.49;100.00;95549.79;646335;216;37174;-71
2021/11/05 06:29:53;;;;;;;1.40;1.02;;;2.80;1.40;;;3.44;100.00;95556.99;619467;226;32766;-72
2021/11/05 06:32:34;;;;;;;0.70;0.60;;;2.80;1.40;;;3.56;100.00;95553.62;647731;212;39909;-72
2021/11/05 06:35:51;;;;;;;1.10;0.95;;;2.90;1.40;;;3.56;100.00;95562.67;646705;216;33535;-72
2021/11/05 06:38:35;;;;;;;1.08;0.77;;;2.90;1.40;;;3.52;100.00;95562.89;645511;216;31492;-72
2021/11/05 06:41:17;;;;;;;1.20;0.70;;;2.80;1.40;;;3.57;100.00;95566.97;644041;216;34659;-70
2021/11/05 06:43:59;;;;;;;1.12;1.05;;;2.90;1.40;;;3.54;100.00;95574.41;645792;212;31834;-72
2021/11/05 06:46:43;;;;;;;0.70;0.70;;;2.80;1.40;;;3.58;100.00;95583.76;646482;216;31530;-68
2021/11/05 06:49:25;;;;;;;0.80;0.65;;;2.90;1.40;;;3.54;100.00;95580.89;646486;212;31554;-72
2021/11/05 06:52:07;;;;;;;3.05;0.90;;;2.90;1.40;;;3.49;100.00;95588.05;645633;212;31604;-71
2021/11/05 06:57:26;;;;;;;1.20;0.70;;;2.90;1.40;;;3.61;100.00;95603.23;645651;216;31573;-71
2021/11/05 07:00:11;;;;;;;1.23;1.13;;;2.90;1.40;;;3.63;100.00;95611.19;645489;216;31849;-71
2021/11/05 07:02:52;;;;;;;0.80;0.80;;;3.00;1.40;;;3.77;100.00;95618.61;645935;216;31589;-71
2021/11/05 07:05:37;;;;;;;0.80;0.80;;;3.20;1.40;;;4.07;100.00;95619.31;647216;212;31569;-72
2021/11/05 07:08:19;;;;;;;0.95;0.85;;;3.50;1.40;;;4.24;100.00;95625.18;647209;212;31567;-72
2021/11/05 07:11:00;;;;;;;1.60;1.02;;;3.60;1.40;;;4.31;100.00;95624.55;645524;212;31569;-72
2021/11/05 07:13:42;;;;;;;1.00;0.85;;;3.60;1.40;;;4.36;100.00;95623.77;641074;214;43565;-71
2021/11/05 07:16:26;;;;;;;2.10;2.00;;;3.70;1.40;;;4.34;100.00;95631.91;646191;216;31628;-72
2021/11/05 07:19:05;;;;;;;0.70;0.70;;;3.60;1.40;;;4.42;100.00;95636.79;645813;216;31564;-72
2021/11/05 07:21:58;;;;;;;1.20;1.10;;;3.70;1.40;;;4.46;100.00;95639.30;644746;216;31999;-72
2021/11/05 07:24:32;;;;;;;1.70;1.60;;;3.70;1.40;;;4.58;100.00;95641.88;646563;216;31495;-71
2021/11/05 07:27:13;;;;;;;1.20;0.80;;;3.70;1.40;;;4.65;100.00;95648.70;646551;212;31549;-71
2021/11/05 07:29:56;;;;;;;1.23;1.12;;;3.80;1.40;;;4.69;100.00;95653.28;645068;212;32870;-70
2021/11/05 07:32:36;;;;;;;1.17;0.95;;;3.90;1.40;;;4.86;100.00;95657.78;645492;216;31569;-72
2021/11/05 07:35:52;;;;;;;1.10;1.10;;;4.10;1.40;;;4.98;100.00;95670.19;617398;222;32002;-72
2021/11/05 07:38:33;;;;;;;1.10;0.60;;;4.30;1.40;;;5.01;100.00;95678.95;646552;216;31592;-69
2021/11/05 07:41:15;;;;;;;0.90;0.90;;;4.40;1.40;;;5.09;100.00;95683.84;643007;216;31714;-71
2021/11/05 07:44:00;;;;;;;1.50;1.30;;;4.50;1.40;;;5.28;100.00;95683.81;646519;212;31682;-72
2021/11/05 07:46:42;;;;;;;0.90;0.90;;;4.70;1.40;;;5.38;100.00;95686.52;644876;216;31542;-71
2021/11/05 07:49:26;;;;;;;1.45;1.35;;;4.80;1.40;;;5.70;100.00;95687.48;645967;216;31543;-70
2021/11/05 07:52:08;;;;;;;1.52;1.42;;;5.10;1.40;;;5.74;100.00;95691.36;644564;212;31550;-71
2021/11/05 07:54:50;;;;;;;1.87;1.35;;;5.10;1.40;;;5.79;100.00;95701.29;645736;216;31637;-71
2021/11/05 07:57:32;;;;;;;2.20;1.90;;;5.10;1.40;;;5.96;100.00;95708.24;647704;216;31546;-71
2021/11/05 08:00:14;;;;;;;0.80;0.80;;;5.10;1.40;;;6.06;100.00;95704.91;645398;212;31592;-70
2021/11/05 08:02:59;;;;;;;1.90;1.20;;;5.30;1.40;;;6.14;100.00;95713.48;644351;216;31998;-68
2021/11/05 08:05:43;;;;;;;2.33;2.12;;;5.30;1.40;;;6.40;100.00;95714.73;646038;216;31676;-70
2021/11/05 08:08:26;;;;;;;1.55;1.45;;;5.30;1.40;;;6.24;100.00;95720.05;645721;216;32265;-70
2021/11/05 08:11:07;;;;;;;1.10;0.90;;;5.30;1.40;;;6.26;100.00;95726.73;645825;212;31523;-70
2021/11/05 08:13:51;;;;;;;1.30;1.20;;;5.30;1.40;;;6.33;100.00;95728.80;646395;216;42150;-70
2021/11/05 08:16:30;;;;;;;1.10;1.00;;;5.30;1.40;;;6.13;100.00;95733.86;645365;212;31650;-71
2021/11/05 08:19:12;;;;;;;1.20;1.08;;;5.20;1.40;;;6.59;100.00;95737.08;646380;212;31760;-70
2021/11/05 08:21:54;;;;;;;0.80;0.73;;;5.80;1.40;;;6.79;100.00;95741.86;647310;216;31499;-72
2021/11/05 08:24:35;;;;;;;1.20;1.10;;;6.20;1.40;;;6.82;100.00;95753.39;647189;212;31510;-72
2021/11/05 08:27:20;;;;;;;1.40;1.10;;;6.10;1.40;;;6.79;100.00;95754.95;646837;216;31641;-69
2021/11/05 08:30:04;;;;;;;1.20;1.10;;;6.10;1.40;;;6.84;100.00;95761.52;645737;216;31507;-71
2021/11/05 08:32:46;;;;;;;1.60;1.50;;;6.10;1.40;;;6.82;100.00;95767.83;646389;212;31701;-70
2021/11/05 08:35:52;;;;;;;1.45;1.10;;;6.20;1.40;;;7.08;100.00;95773.59;646515;212;31583;-72
2021/11/05 08:38:33;;;;;;;1.03;0.67;;;6.30;1.40;;;6.97;100.00;95778.01;646482;212;31979;-71
2021/11/05 08:41:17;;;;;;;0.95;0.90;;;6.10;1.40;;;6.77;100.00;95790.26;646036;212;32071;-69
2021/11/05 08:43:58;;;;;;;2.10;1.30;;;6.00;1.40;;;6.68;100.00;95791.11;644886;216;32322;-71
2021/11/05 08:46:40;;;;;;;1.02;0.93;;;5.90;1.40;;;6.62;100.00;95792.03;645349;216;42658;-69
2021/11/05 08:49:23;;;;;;;1.20;0.95;;;5.90;1.40;;;6.67;100.00;95796.77;646154;216;32136;-71
2021/11/05 08:52:03;;;;;;;1.10;0.90;;;6.00;1.40;;;6.63;100.00;95800.70;646333;212;42348;-69
2021/11/05 08:54:45;;;;;;;1.50;1.30;;;6.00;1.40;;;6.71;100.00;95807.89;647166;216;31870;-70
2021/11/05 08:57:26;;;;;;;2.00;1.23;;;6.10;1.40;;;6.88;100.00;95806.35;646704;212;31515;-71
2021/11/05 09:00:11;;;;;;;1.00;1.00;;;6.20;1.40;;;6.99;100.00;95814.17;645716;212;31549;-70
2021/11/05 09:02:52;;;;;;;1.50;1.30;;;6.40;1.40;;;7.19;100.00;95811.89;644762;212;31561;-72
2021/11/05 09:05:36;;;;;;;1.25;1.00;;;6.60;1.40;;;7.58;100.00;95818.28;647338;212;31527;-71
2021/11/05 09:08:16;;;;;;;1.50;1.10;;;7.00;1.40;;;7.84;100.00;95822.53;646627;216;31552;-70
2021/11/05 09:10:57;;;;;;;1.30;1.20;;;7.60;1.40;;;8.59;100.00;95823.95;645934;216;31525;-69
2021/11/05 09:13:39;;;;;;;1.35;1.25;;;7.80;1.40;;;8.07;100.00;95830.16;645621;216;32147;-70
2021/11/05 09:16:21;;;;;;;1.30;1.17;;;7.00;1.40;;;7.56;100.00;95840.41;619518;225;32438;-69
2021/11/05 09:19:03;;;;;;;1.33;1.10;;;6.60;1.40;;;7.23;100.00;95846.13;646032;216;31789;-70
2021/11/05 09:21:44;;;;;;;1.30;1.03;;;6.30;1.40;;;6.93;100.00;95847.28;645566;216;32432;-71
2021/11/05 09:24:26;;;;;;;0.80;0.80;;;6.20;1.40;;;6.95;100.00;95847.34;645787;216;31565;-70
2021/11/05 09:27:07;;;;;;;1.80;1.13;;;6.20;1.40;;;7.02;100.00;95852.34;630821;220;31711;-69
2021/11/05 09:29:49;;;;;;;1.40;1.27;;;6.40;1.40;;;7.48;100.00;95855.44;645942;216;31528;-70
2021/11/05 09:32:31;;;;;;;1.97;1.50;;;6.70;1.40;;;7.69;100.00;95861.77;646105;216;31545;-69
2021/11/05 09:35:51;;;;;;;1.30;1.20;;;7.10;1.40;;;8.03;100.00;95863.44;644740;216;31877;-72
2021/11/05 09:38:32;;;;;;;1.67;1.50;;;7.20;1.40;;;8.01;100.00;95869.23;645709;213;31623;-70
2021/11/05 09:43:48;;;;;;;1.70;1.60;;;7.20;1.40;;;8.15;100.00;95872.50;646001;216;31552;-71
2021/11/05 09:46:30;;;;;;;1.40;1.23;;;7.20;1.40;;;7.88;100.00;95874.02;646889;212;31550;-69
2021/11/05 09:49:12;;;;;;;1.30;1.20;;;7.10;1.40;;;8.08;100.00;95872.16;645568;216;31875;-71
2021/11/05 09:51:53;;;;;;;2.60;1.10;;;7.10;1.40;;;8.35;100.00;95870.22;646291;212;31592;-70
2021/11/05 09:54:35;;;;;;;1.70;1.00;;;7.20;1.40;;;8.53;100.00;95875.59;646247;216;31553;-72
2021/11/05 09:57:16;;;;;;;1.40;1.10;;;7.40;1.40;;;8.70;100.00;95879.06;647731;216;31555;-69
2021/11/05 09:59:58;;;;;;;1.30;0.80;;;7.40;1.40;;;8.57;100.00;95876.89;646094;216;31576;-70
2021/11/05 10:02:40;;;;;;;1.20;0.80;;;7.40;1.40;;;8.65;100.00;95875.31;646868;216;31519;-70
2021/11/05 10:05:21;;;;;;;1.10;0.70;;;7.60;1.40;;;8.59;100.00;95872.34;645991;216;31598;-70
2021/11/05 10:08:03;;;;;;;1.40;1.30;;;7.70;1.40;;;9.09;100.00;95875.27;646419;212;31795;-72
2021/11/05 10:10:45;;;;;;;1.75;1.30;;;8.10;1.40;;;9.08;100.00;95879.67;645703;216;42703;-69
2021/11/05 10:13:27;;;;;;;1.10;0.90;;;8.40;1.40;;;9.38;100.00;95875.11;646416;216;31756;-72
2021/11/05 10:16:08;;;;;;;1.70;0.80;;;8.40;1.40;;;9.41;100.00;95875.17;647014;212;31873;-70
2021/11/05 10:21:24;;;;;;;1.40;0.93;;;8.90;1.40;;;9.72;100.00;95879.23;645541;216;31530;-70
2021/11/05 10:24:08;;;;;;;1.20;1.10;;;9.20;1.40;;;9.90;100.00;95880.62;647184;212;31620;-69
2021/11/05 10:26:50;;;;;;;0.90;0.67;;;8.90;1.40;;;9.69;100.00;95879.91;645717;212;31582;-69
2021/11/05 10:29:34;;;;;;;1.30;0.90;;;8.50;1.40;;;9.31;100.00;95872.79;647121;212;32395;-71
2021/11/05 10:32:16;;;;;;;1.80;1.20;;;8.10;1.40;;;8.96;100.00;95876.86;647028;216;31535;-72
2021/11/05 10:35:51;;;;;;;1.00;1.00;;;8.00;1.40;;;9.05;100.00;95878.02;645562;212;31961;-72
2021/11/05 10:38:34;;;;;;;1.10;0.90;;;8.20;1.40;;;9.20;100.00;95878.94;647717;216;31536;-70
2021/11/05 10:41:20;;;;;;;1.23;1.10;;;8.50;1.40;;;9.50;100.00;95880.30;641659;212;31859;-70
2021/11/05 10:44:01;;;;;;;1.50;1.10;;;8.60;1.40;;;9.66;100.00;95884.57;646759;216;31516;-70
2021/11/05 10:46:49;;;;;;;1.00;0.90;;;8.60;1.40;;;9.28;100.00;95885.08;629356;220;31757;-70
2021/11/05 10:49:40;;;;;;;1.65;0.95;;;8.30;1.40;;;9.37;100.00;95883.61;646337;214;42946;-71
2021/11/05 10:52:18;;;;;;;1.20;1.00;;;8.20;1.40;;;9.16;100.00;95882.77;642260;214;31735;-71
2021/11/05 10:55:00;;;;;;;1.12;0.88;;;8.00;1.40;;;9.11;100.00;95880.89;645623;212;42256;-70
2021/11/05 10:57:41;;;;;;;1.00;0.80;;;8.00;1.40;;;9.18;100.00;95882.09;646377;216;31531;-70
2021/11/05 11:00:25;;;;;;;1.60;0.70;;;8.00;1.40;;;8.90;100.00;95884.50;647092;216;31851;-71
2021/11/05 11:05:44;;;;;;;0.77;0.60;;;8.10;1.40;;;8.89;100.00;95888.78;646569;212;31522;-70
2021/11/05 11:08:25;;;;;;;1.15;0.70;;;7.90;1.40;;;9.13;100.00;95894.69;645883;216;31502;-71
2021/11/05 11:11:21;;;;;;;1.05;0.70;;;7.90;1.40;;;9.10;100.00;95894.09;645936;214;31526;-71
2021/11/05 11:14:21;;;;;;;2.60;1.10;;;8.00;1.40;;;9.10;100.00;95897.01;631433;217;31700;-70
2021/11/05 11:17:10;;;;;;;1.33;0.90;;;7.90;1.40;;;8.86;100.00;95890.16;647148;216;31505;-71
2021/11/05 11:19:47;;;;;;;0.83;0.83;;;7.70;1.40;;;8.55;100.00;95894.87;647353;212;31604;-70
2021/11/05 11:22:29;;;;;;;0.80;0.60;;;7.70;1.40;;;8.60;100.00;95895.95;647430;216;31514;-71
2021/11/05 11:25:10;;;;;;;0.90;0.90;;;7.70;1.40;;;8.62;100.00;95892.80;615506;226;31892;-72
2021/11/05 11:27:52;;;;;;;0.80;0.50;;;7.80;1.40;;;8.60;100.00;95898.65;646881;216;32006;-71
2021/11/05 11:30:37;;;;;;;0.80;0.80;;;7.70;1.40;;;9.05;100.00;95899.11;646193;212;31517;-70
2021/11/05 11:35:50;;;;;;;0.55;0.50;;;8.70;1.40;;;9.96;100.00;95896.95;648302;212;31596;-72
2021/11/05 11:38:32;;;;;;;1.10;0.60;;;8.80;1.40;;;10.18;100.00;95901.80;644638;212;31540;-70
2021/11/05 11:41:17;;;;;;;1.00;0.70;;;8.70;1.40;;;9.85;100.00;95899.08;642797;216;42352;-69
2021/11/05 11:44:00;;;;;;;0.70;0.50;;;8.50;1.40;;;9.82;100.00;95898.94;619399;226;31962;-70
2021/11/05 11:46:55;;;;;;;0.63;0.40;;;8.80;1.40;;;9.91;97.51;95896.09;645944;212;31518;-69
2021/11/05 11:49:46;;;;;;;0.80;0.50;;;8.70;1.40;;;10.18;95.37;95903.75;645701;212;31701;-70
2021/11/05 11:52:29;;;;;;;0.50;0.30;;;9.20;1.40;;;10.53;92.37;95907.97;647084;212;31549;-72
2021/11/05 11:55:11;;;;;;;0.50;0.30;;;9.40;1.40;;;10.57;93.90;95904.66;619567;226;31866;-70
2021/11/05 11:58:08;;;;;;;0.50;0.40;;;9.10;1.40;;;10.86;90.12;95901.19;646212;212;32130;-70
2021/11/05 12:00:50;;;;;;;0.50;0.50;;;9.50;1.40;;;10.89;87.07;95898.15;647001;212;31533;-69
2021/11/05 12:03:32;;;;;;;0.70;0.50;;;9.90;1.40;;;11.07;87.23;95905.77;646750;216;31493;-72